Time;durP1;ratioP1;P1;durP2;ratioP2;P2;SDS_P1;SDS_P2;PMS_P1;PMS_P2;Temp;Humidity;BMP_temperature;BMP_pressure;BME280_temperature;BME280_humidity;BME280_pressure;Samples;Min_cycle;Max_cycle;Signal;HPM_P1;HPM_P2
2023/09/19 00:00:26;;;;;;;3.03;0.40;;;15.20;99.90;;;;;;4964128;28;20034;-80
2023/09/19 00:02:59;;;;;;;2.42;0.30;;;15.20;99.90;;;;;;4948556;28;20503;-81
2023/09/19 00:05:27;;;;;;;3.35;0.30;;;15.20;99.90;;;;;;4962120;28;20054;-81
2023/09/19 00:07:54;;;;;;;2.80;0.35;;;15.20;99.90;;;;;;4964413;28;20476;-80
2023/09/19 00:10:26;;;;;;;3.35;0.45;;;15.20;99.90;;;;;;4951312;28;20442;-80
2023/09/19 00:12:55;;;;;;;6.25;0.73;;;15.20;99.90;;;;;;4964973;28;20059;-80
2023/09/19 00:15:30;;;;;;;5.45;0.47;;;15.30;99.90;;;;;;4946187;28;20097;-81
2023/09/19 00:17:56;;;;;;;5.82;0.52;;;15.20;99.90;;;;;;4949562;28;20043;-81
2023/09/19 00:20:23;;;;;;;4.80;0.40;;;15.20;99.90;;;;;;4950193;28;20038;-81
2023/09/19 00:22:51;;;;;;;5.07;0.60;;;15.20;99.90;;;;;;4944646;28;20537;-81
2023/09/19 00:25:18;;;;;;;5.05;0.50;;;15.10;99.90;;;;;;4963696;28;20034;-80
2023/09/19 00:27:44;;;;;;;5.07;0.70;;;15.10;99.90;;;;;;4946881;28;20027;-81
2023/09/19 00:30:21;;;;;;;2.40;0.40;;;15.10;99.90;;;;;;4949982;28;20372;-81
2023/09/19 00:32:47;;;;;;;2.53;0.30;;;15.00;99.90;;;;;;4943270;28;20041;-81
2023/09/19 00:35:16;;;;;;;3.55;0.40;;;15.00;99.90;;;;;;4947556;28;20028;-79
2023/09/19 00:37:42;;;;;;;4.18;0.60;;;15.00;99.90;;;;;;4950059;28;20404;-80
2023/09/19 00:40:11;;;;;;;3.33;0.30;;;15.00;99.90;;;;;;4955241;28;20106;-80
2023/09/19 00:42:39;;;;;;;2.03;0.32;;;15.00;99.90;;;;;;4946999;28;20082;-80
2023/09/19 00:45:07;;;;;;;5.00;0.50;;;15.00;99.90;;;;;;4947671;28;20484;-82
2023/09/19 00:47:33;;;;;;;4.13;0.30;;;14.90;99.90;;;;;;4929982;28;20023;-80
2023/09/19 00:49:59;;;;;;;1.52;0.25;;;14.90;99.90;;;;;;4958244;28;20034;-85
2023/09/19 00:52:26;;;;;;;1.67;0.20;;;14.90;99.90;;;;;;4950624;28;20027;-80
2023/09/19 00:54:52;;;;;;;2.97;0.60;;;14.90;99.90;;;;;;4946781;28;20038;-85
2023/09/19 00:57:19;;;;;;;4.68;0.30;;;14.90;99.90;;;;;;4955584;28;20173;-82
2023/09/19 00:59:48;;;;;;;2.53;0.60;;;14.90;99.90;;;;;;4945597;28;20027;-79
2023/09/19 01:02:14;;;;;;;3.65;0.30;;;14.90;99.90;;;;;;4962595;28;20031;-83
2023/09/19 01:04:40;;;;;;;5.18;0.60;;;14.90;99.90;;;;;;4958936;28;20450;-80
2023/09/19 01:07:08;;;;;;;3.53;0.50;;;14.90;99.90;;;;;;4962037;28;20487;-80
2023/09/19 01:09:34;;;;;;;4.78;0.70;;;14.90;99.90;;;;;;4956882;28;20489;-82
2023/09/19 01:12:04;;;;;;;4.55;0.47;;;14.90;99.90;;;;;;4961687;28;20169;-83
2023/09/19 01:14:36;;;;;;;;;;;14.80;99.90;;;;;;4950222;28;20344;-80
2023/09/19 01:17:18;;;;;;;6.63;0.50;;;14.80;99.90;;;;;;4959869;28;20354;-84
2023/09/19 01:19:53;;;;;;;2.00;0.40;;;14.70;99.90;;;;;;4944052;28;20031;-80
2023/09/19 01:23:09;;;;;;;4.05;0.50;;;14.70;99.90;;;;;;4961675;28;20023;-80
2023/09/19 01:26:10;;;;;;;4.18;0.50;;;14.60;99.90;;;;;;4890561;29;20052;-82
2023/09/19 01:29:24;;;;;;;7.32;0.82;;;14.60;99.90;;;;;;4905504;28;20048;-81
2023/09/19 01:31:54;;;;;;;2.70;0.40;;;14.60;99.90;;;;;;4907931;29;20414;-80
2023/09/19 01:34:20;;;;;;;10.15;0.95;;;14.60;99.90;;;;;;4875545;29;20119;-82
2023/09/19 01:36:46;;;;;;;4.18;0.63;;;14.60;99.90;;;;;;4990293;28;20162;-81
2023/09/19 01:39:13;;;;;;;4.05;0.40;;;14.60;99.90;;;;;;4906368;29;20048;-81
2023/09/19 01:42:06;;;;;;;8.20;0.95;;;14.50;99.90;;;;;;4892160;29;20024;-81
2023/09/19 01:45:07;;;;;;;10.80;0.90;;;14.50;99.90;;;;;;4907101;29;20515;-81
2023/09/19 01:47:42;;;;;;;8.05;0.50;;;14.50;99.90;;;;;;4990923;28;20032;-81
2023/09/19 01:50:32;;;;;;;6.78;0.80;;;14.50;99.90;;;;;;4891540;29;20094;-80
2023/09/19 01:53:24;;;;;;;4.15;0.50;;;14.50;99.90;;;;;;4973217;28;20032;-85
2023/09/19 01:55:51;;;;;;;7.60;0.77;;;14.40;99.90;;;;;;4990966;28;20086;-81
2023/09/19 01:58:22;;;;;;;10.18;0.60;;;14.40;99.90;;;;;;4893665;29;20078;-82
2023/09/19 02:00:52;;;;;;;6.75;0.47;;;14.50;99.90;;;;;;4973620;28;20031;-80
2023/09/19 02:03:22;;;;;;;7.65;0.70;;;14.50;99.90;;;;;;4947004;28;20036;-81
2023/09/19 02:05:53;;;;;;;8.45;0.60;;;14.50;99.90;;;;;;4961830;28;20031;-80
2023/09/19 02:08:23;;;;;;;6.80;0.80;;;14.50;99.90;;;;;;4943047;28;20061;-80
2023/09/19 02:10:49;;;;;;;7.72;0.63;;;14.50;99.90;;;;;;4962302;28;20149;-80
2023/09/19 02:13:19;;;;;;;6.55;0.70;;;14.40;99.90;;;;;;4945736;28;20075;-81
2023/09/19 02:15:46;;;;;;;9.35;0.60;;;14.40;99.90;;;;;;4940838;29;20479;-79
2023/09/19 02:18:12;;;;;;;7.75;0.50;;;14.50;99.90;;;;;;4934707;28;20444;-81
2023/09/19 02:20:39;;;;;;;8.77;0.60;;;14.50;99.90;;;;;;4942954;28;20035;-80
2023/09/19 02:23:05;;;;;;;7.47;0.90;;;14.50;99.90;;;;;;4954210;28;20062;-80
2023/09/19 02:25:32;;;;;;;6.60;0.50;;;14.50;99.90;;;;;;4949387;28;20028;-80
2023/09/19 02:28:02;;;;;;;7.68;0.60;;;14.50;99.90;;;;;;4957858;28;20134;-80
2023/09/19 02:30:29;;;;;;;5.80;0.70;;;14.40;99.90;;;;;;4925948;29;20027;-81
2023/09/19 02:32:55;;;;;;;8.75;0.77;;;14.40;99.90;;;;;;4956577;28;20048;-80
2023/09/19 02:35:21;;;;;;;8.80;0.68;;;14.30;99.90;;;;;;4956935;28;20034;-86
2023/09/19 02:37:47;;;;;;;10.15;0.65;;;14.30;99.90;;;;;;4953019;28;20035;-80
2023/09/19 02:40:19;;;;;;;3.95;0.40;;;14.20;99.90;;;;;;4955212;28;20111;-80
2023/09/19 02:42:48;;;;;;;5.78;0.60;;;14.20;99.90;;;;;;4942804;28;20055;-81
2023/09/19 02:45:15;;;;;;;9.32;1.00;;;14.10;99.90;;;;;;4939893;29;20387;-81
2023/09/19 02:47:41;;;;;;;7.93;1.10;;;14.00;99.90;;;;;;4951256;28;20038;-85
2023/09/19 02:50:08;;;;;;;5.15;0.60;;;14.00;99.90;;;;;;4952419;28;20645;-80
2023/09/19 02:52:33;;;;;;;5.82;0.90;;;14.00;99.90;;;;;;4957490;28;20498;-81
2023/09/19 02:55:00;;;;;;;7.50;0.85;;;14.00;99.90;;;;;;4957278;28;20114;-80
2023/09/19 02:57:27;;;;;;;12.27;1.20;;;13.90;99.90;;;;;;4939205;29;20028;-81
2023/09/19 02:59:53;;;;;;;4.57;0.43;;;13.90;99.90;;;;;;4941368;29;20031;-82
2023/09/19 03:02:19;;;;;;;6.13;0.80;;;13.90;99.90;;;;;;4950089;28;20034;-80
2023/09/19 03:04:46;;;;;;;8.95;0.70;;;13.80;99.90;;;;;;4955560;28;20070;-79
2023/09/19 03:07:12;;;;;;;5.25;0.50;;;13.80;99.90;;;;;;4936761;29;20054;-80
2023/09/19 03:09:38;;;;;;;5.20;0.70;;;13.70;99.90;;;;;;4947084;28;20024;-81
2023/09/19 03:12:04;;;;;;;7.72;0.70;;;13.70;99.90;;;;;;4961190;28;20467;-88
2023/09/19 03:14:35;;;;;;;3.78;0.50;;;13.60;99.90;;;;;;4944316;29;20032;-80
2023/09/19 03:17:04;;;;;;;5.88;0.60;;;13.60;99.90;;;;;;4941184;29;20031;-80
2023/09/19 03:19:30;;;;;;;3.95;0.40;;;13.50;99.90;;;;;;4946995;29;20069;-83
2023/09/19 03:21:57;;;;;;;7.70;0.55;;;13.50;99.90;;;;;;4944261;29;20054;-81
2023/09/19 03:24:24;;;;;;;2.33;0.30;;;13.50;99.90;;;;;;4953951;28;20383;-85
2023/09/19 03:26:49;;;;;;;4.60;0.40;;;13.40;99.90;;;;;;4962006;28;20027;-79
2023/09/19 03:29:17;;;;;;;3.72;0.50;;;13.40;99.90;;;;;;4956196;28;20082;-79
2023/09/19 03:31:43;;;;;;;3.10;0.50;;;13.40;99.90;;;;;;4961758;28;20472;-79
2023/09/19 03:34:09;;;;;;;5.43;0.40;;;13.30;99.90;;;;;;4944843;28;20022;-85
2023/09/19 03:36:35;;;;;;;4.68;0.68;;;13.30;99.90;;;;;;4960471;28;20051;-81
2023/09/19 03:39:04;;;;;;;3.20;0.50;;;13.30;99.90;;;;;;4959631;28;20130;-79
2023/09/19 03:41:31;;;;;;;5.00;0.60;;;13.30;99.90;;;;;;4945401;29;20073;-79
2023/09/19 03:43:57;;;;;;;5.63;0.47;;;13.20;99.90;;;;;;4943969;29;20040;-82
2023/09/19 03:46:23;;;;;;;5.68;0.85;;;13.20;99.90;;;;;;4959601;28;20032;-79
2023/09/19 03:48:50;;;;;;;4.10;0.30;;;13.20;99.90;;;;;;4943152;29;20024;-79
2023/09/19 03:51:16;;;;;;;3.67;0.60;;;13.20;99.90;;;;;;4961096;28;20465;-80
2023/09/19 03:53:41;;;;;;;5.10;0.50;;;13.20;99.90;;;;;;4944593;29;20035;-81
2023/09/19 03:56:08;;;;;;;4.10;0.40;;;13.10;99.90;;;;;;4960829;28;20039;-80
2023/09/19 03:58:38;;;;;;;3.63;0.30;;;13.00;99.90;;;;;;4952932;28;20046;-79
2023/09/19 04:01:03;;;;;;;4.63;0.30;;;13.00;99.90;;;;;;4945310;29;20036;-80
2023/09/19 04:03:34;;;;;;;2.63;0.35;;;13.10;99.90;;;;;;4943929;29;20390;-79
2023/09/19 04:06:01;;;;;;;5.68;0.38;;;13.00;99.90;;;;;;4944656;29;20031;-81
2023/09/19 04:08:26;;;;;;;3.78;0.25;;;13.00;99.90;;;;;;4942654;28;20027;-80
2023/09/19 04:10:52;;;;;;;4.72;0.40;;;13.00;99.90;;;;;;4945144;28;20392;-79
2023/09/19 04:13:18;;;;;;;1.60;0.30;;;13.00;99.90;;;;;;4944069;28;20117;-80
2023/09/19 04:15:46;;;;;;;2.60;0.30;;;12.90;99.90;;;;;;4954281;28;20491;-79
2023/09/19 04:18:11;;;;;;;3.97;0.45;;;12.90;99.90;;;;;;4955927;28;20047;-79
2023/09/19 04:20:38;;;;;;;3.50;0.30;;;12.90;99.90;;;;;;4953480;28;20045;-83
2023/09/19 04:23:05;;;;;;;6.78;0.60;;;12.90;99.90;;;;;;4943790;28;20028;-80
2023/09/19 04:25:31;;;;;;;5.63;0.82;;;12.90;99.90;;;;;;4942507;29;20491;-81
2023/09/19 04:27:57;;;;;;;5.28;0.60;;;12.90;99.90;;;;;;4945648;28;20081;-81
2023/09/19 04:30:23;;;;;;;5.57;0.60;;;12.90;99.90;;;;;;4956534;28;20073;-79
2023/09/19 04:32:50;;;;;;;4.22;0.40;;;12.90;99.90;;;;;;4946424;29;20035;-80
2023/09/19 04:35:16;;;;;;;7.10;0.40;;;12.90;99.90;;;;;;4959681;28;20051;-79
2023/09/19 04:37:42;;;;;;;4.35;1.02;;;12.80;99.90;;;;;;4946559;29;20078;-79
2023/09/19 04:40:17;;;;;;;4.22;0.40;;;12.90;99.90;;;;;;4942925;28;20030;-79
2023/09/19 04:42:43;;;;;;;2.83;0.40;;;12.90;99.90;;;;;;4959324;28;20696;-80
2023/09/19 04:45:10;;;;;;;4.90;0.40;;;12.80;99.90;;;;;;4941715;29;20028;-80
2023/09/19 04:47:38;;;;;;;4.32;0.50;;;12.80;99.90;;;;;;4943166;29;20039;-79
2023/09/19 04:50:11;;;;;;;5.25;0.40;;;12.80;99.90;;;;;;4959449;28;20035;-80
2023/09/19 04:52:42;;;;;;;4.85;0.93;;;12.80;99.90;;;;;;4933410;29;20082;-80
2023/09/19 04:55:16;;;;;;;4.10;0.40;;;12.90;99.90;;;;;;4944085;28;20031;-80
2023/09/19 04:57:50;;;;;;;3.20;0.40;;;12.90;99.90;;;;;;4950557;28;20035;-80
2023/09/19 05:00:18;;;;;;;7.00;0.82;;;12.90;99.90;;;;;;4943598;29;20027;-83
2023/09/19 05:02:44;;;;;;;3.05;0.60;;;13.00;99.90;;;;;;4944530;28;20081;-85
2023/09/19 05:05:11;;;;;;;4.80;0.60;;;12.90;99.90;;;;;;4941128;28;20488;-79
2023/09/19 05:07:39;;;;;;;5.07;0.70;;;12.90;99.90;;;;;;4946496;28;20039;-80
2023/09/19 05:10:05;;;;;;;4.72;0.40;;;13.00;99.90;;;;;;4943450;29;20035;-79
2023/09/19 05:12:34;;;;;;;4.07;0.73;;;13.00;99.90;;;;;;4941556;28;20484;-79
2023/09/19 05:15:01;;;;;;;4.15;0.40;;;13.00;99.90;;;;;;4957867;28;20035;-79
2023/09/19 05:17:27;;;;;;;5.22;0.40;;;13.00;99.90;;;;;;4942523;28;20027;-80
2023/09/19 05:19:52;;;;;;;5.88;0.55;;;13.00;99.90;;;;;;4942075;28;20116;-78
2023/09/19 05:22:18;;;;;;;4.38;0.50;;;13.00;99.90;;;;;;4942536;29;20027;-79
2023/09/19 05:24:47;;;;;;;3.35;0.40;;;12.90;99.90;;;;;;4908480;28;20045;-80
2023/09/19 05:27:17;;;;;;;3.60;0.38;;;13.00;99.90;;;;;;4950099;28;20059;-82
2023/09/19 05:29:44;;;;;;;3.37;0.30;;;13.00;99.90;;;;;;4945225;28;20928;-81
2023/09/19 05:32:10;;;;;;;3.67;0.45;;;13.00;99.90;;;;;;4956527;28;20291;-81
2023/09/19 05:34:36;;;;;;;4.18;0.60;;;13.00;99.90;;;;;;4947790;28;20061;-82
2023/09/19 05:37:02;;;;;;;3.47;0.40;;;13.00;99.90;;;;;;4951297;28;20067;-79
2023/09/19 05:39:28;;;;;;;2.33;0.30;;;13.00;99.90;;;;;;4961019;28;20036;-83
2023/09/19 05:41:54;;;;;;;3.28;0.40;;;13.00;99.90;;;;;;4942811;28;20049;-83
2023/09/19 05:44:20;;;;;;;5.10;0.50;;;13.10;99.90;;;;;;4935462;28;20042;-80
2023/09/19 05:46:48;;;;;;;3.03;0.30;;;13.10;99.90;;;;;;4957466;28;20023;-84
2023/09/19 05:49:14;;;;;;;3.95;0.32;;;13.10;99.90;;;;;;4948046;28;20467;-82
2023/09/19 05:51:39;;;;;;;4.70;0.50;;;13.10;99.90;;;;;;4940687;28;20032;-84
2023/09/19 05:54:05;;;;;;;6.38;0.47;;;13.20;99.90;;;;;;4953303;28;20077;-79
2023/09/19 05:56:31;;;;;;;4.40;0.40;;;13.10;99.90;;;;;;4959189;28;20428;-82
2023/09/19 05:58:57;;;;;;;3.90;0.47;;;13.10;99.90;;;;;;4958068;28;20138;-80
2023/09/19 06:01:22;;;;;;;2.33;0.40;;;13.10;99.90;;;;;;4957752;28;20484;-81
2023/09/19 06:03:48;;;;;;;4.80;1.08;;;13.20;99.90;;;;;;4952023;28;20050;-82
2023/09/19 06:06:14;;;;;;;2.72;0.30;;;13.20;99.90;;;;;;4943561;29;20085;-83
2023/09/19 06:08:40;;;;;;;3.33;0.20;;;13.20;99.90;;;;;;4941712;28;20027;-83
2023/09/19 06:11:09;;;;;;;6.43;0.40;;;13.20;99.90;;;;;;4942450;28;20449;-80
2023/09/19 06:13:35;;;;;;;4.75;0.40;;;13.20;99.90;;;;;;4958343;28;20058;-80
2023/09/19 06:16:05;;;;;;;2.95;0.40;;;13.20;99.90;;;;;;4940211;28;20062;-82
2023/09/19 06:18:34;;;;;;;1.95;0.30;;;13.30;99.90;;;;;;4956035;28;20114;-81
2023/09/19 06:21:00;;;;;;;3.95;0.35;;;13.30;99.90;;;;;;4957182;28;20491;-81
2023/09/19 06:23:29;;;;;;;3.42;0.40;;;13.30;99.90;;;;;;4957722;28;20023;-85
2023/09/19 06:25:54;;;;;;;4.35;0.40;;;13.40;99.90;;;;;;4940684;28;20276;-81
2023/09/19 06:28:24;;;;;;;3.47;0.30;;;13.40;99.90;;;;;;4961953;28;20023;-84
2023/09/19 06:30:50;;;;;;;;;;;13.50;99.90;;;;;;4953251;28;20036;-81
2023/09/19 06:33:17;;;;;;;4.00;0.40;;;13.50;99.90;;;;;;4942677;28;19937;-82
2023/09/19 06:35:44;;;;;;;6.07;0.55;;;13.50;99.90;;;;;;4940926;29;20039;-83
2023/09/19 06:38:12;;;;;;;3.50;0.52;;;13.60;99.90;;;;;;4954354;28;20050;-83
2023/09/19 06:40:44;;;;;;;3.83;0.40;;;13.60;99.90;;;;;;4924920;29;20027;-83
2023/09/19 06:43:10;;;;;;;3.67;0.32;;;13.70;99.90;;;;;;4952853;28;20080;-82
2023/09/19 06:45:36;;;;;;;5.53;0.43;;;13.70;99.90;;;;;;4940690;29;20024;-81
2023/09/19 06:48:03;;;;;;;5.13;0.40;;;13.80;99.90;;;;;;4955592;28;20387;-80
2023/09/19 06:50:30;;;;;;;2.60;0.30;;;13.80;99.90;;;;;;4957133;28;20059;-80
2023/09/19 06:52:59;;;;;;;2.90;0.25;;;13.90;99.90;;;;;;4944133;28;20054;-81
2023/09/19 06:55:27;;;;;;;2.08;0.30;;;14.00;99.90;;;;;;4945086;28;20250;-83
2023/09/19 06:57:57;;;;;;;2.05;0.40;;;14.10;99.90;;;;;;4951442;28;20035;-82
2023/09/19 07:00:23;;;;;;;2.10;0.30;;;14.10;99.90;;;;;;4956800;28;20564;-82
2023/09/19 07:03:03;;;;;;;4.40;0.40;;;14.20;99.90;;;;;;4963272;28;20032;-81
2023/09/19 07:05:33;;;;;;;3.20;0.50;;;14.20;99.90;;;;;;4937991;28;20039;-82
2023/09/19 07:08:01;;;;;;;3.05;0.30;;;14.30;99.90;;;;;;4955251;28;20498;-82
2023/09/19 07:10:28;;;;;;;3.08;0.43;;;14.40;99.90;;;;;;4920965;29;20035;-82
2023/09/19 07:13:00;;;;;;;3.17;0.30;;;14.50;99.90;;;;;;4957995;28;20525;-81
2023/09/19 07:15:28;;;;;;;4.05;0.40;;;14.50;99.90;;;;;;4939090;28;20111;-81
2023/09/19 07:17:55;;;;;;;5.43;0.40;;;14.50;99.90;;;;;;4938832;28;20077;-82
2023/09/19 07:20:23;;;;;;;6.55;0.75;;;14.60;99.90;;;;;;4941863;29;20488;-82
2023/09/19 07:22:50;;;;;;;4.15;0.50;;;14.60;99.90;;;;;;4948745;28;20116;-82
2023/09/19 07:25:16;;;;;;;6.78;0.50;;;14.70;99.90;;;;;;4949783;28;20027;-81
2023/09/19 07:27:43;;;;;;;3.88;0.52;;;14.70;99.90;;;;;;4957250;28;20118;-81
2023/09/19 07:30:10;;;;;;;3.50;0.50;;;14.70;99.90;;;;;;4952169;28;20069;-82
2023/09/19 07:32:38;;;;;;;5.00;0.50;;;14.80;99.90;;;;;;4957216;28;20035;-82
2023/09/19 07:35:08;;;;;;;3.63;0.40;;;14.90;99.90;;;;;;4959412;28;20450;-83
2023/09/19 07:37:34;;;;;;;3.22;0.40;;;15.00;99.90;;;;;;4924716;28;20093;-82
2023/09/19 07:40:09;;;;;;;10.65;0.90;;;15.10;99.90;;;;;;4939142;28;20134;-82
2023/09/19 07:42:38;;;;;;;7.20;0.50;;;15.10;99.90;;;;;;4939031;29;20028;-82
2023/09/19 07:45:05;;;;;;;3.47;0.47;;;15.30;99.90;;;;;;4923214;28;20038;-82
2023/09/19 07:47:32;;;;;;;5.03;0.47;;;15.40;99.90;;;;;;4956274;28;20480;-82
2023/09/19 07:49:59;;;;;;;6.05;0.63;;;15.50;99.90;;;;;;4923353;28;20118;-82
2023/09/19 07:52:27;;;;;;;6.00;0.57;;;15.60;99.90;;;;;;4939809;28;20039;-82
2023/09/19 07:54:53;;;;;;;5.28;0.50;;;15.50;99.90;;;;;;4935063;29;20073;-82
2023/09/19 07:57:19;;;;;;;7.30;0.80;;;15.60;99.90;;;;;;4936475;28;20567;-81
2023/09/19 07:59:45;;;;;;;2.78;0.30;;;15.60;99.90;;;;;;4953207;28;20039;-82
2023/09/19 08:02:16;;;;;;;4.78;0.93;;;15.70;99.90;;;;;;4958049;28;20097;-82
2023/09/19 08:04:45;;;;;;;5.78;0.57;;;15.70;99.90;;;;;;4942673;28;20038;-82
2023/09/19 08:07:11;;;;;;;4.15;0.47;;;15.80;99.90;;;;;;4959534;28;20394;-83
2023/09/19 08:09:38;;;;;;;7.03;1.10;;;16.00;99.90;;;;;;4959480;28;20069;-83
2023/09/19 08:12:05;;;;;;;5.90;0.55;;;15.90;99.90;;;;;;4956685;28;20043;-82
2023/09/19 08:14:31;;;;;;;5.95;0.50;;;16.10;99.90;;;;;;4943081;29;20036;-83
2023/09/19 08:17:00;;;;;;;2.75;0.38;;;16.10;99.90;;;;;;4960466;28;20027;-81
2023/09/19 08:19:31;;;;;;;4.38;0.50;;;16.30;99.90;;;;;;4943820;29;20032;-83
2023/09/19 08:22:01;;;;;;;3.90;0.70;;;16.40;99.90;;;;;;4944731;29;20039;-82
2023/09/19 08:24:28;;;;;;;;;;;16.50;99.90;;;;;;4944284;28;20032;-82
2023/09/19 08:26:57;;;;;;;4.72;0.50;;;16.50;99.90;;;;;;4950044;28;19914;-83
2023/09/19 08:29:27;;;;;;;4.97;0.50;;;16.50;99.90;;;;;;4958433;28;20041;-84
2023/09/19 08:31:58;;;;;;;9.80;0.85;;;16.40;99.90;;;;;;4904810;28;20675;-84
2023/09/19 08:34:24;;;;;;;6.90;0.50;;;16.50;99.90;;;;;;4942177;28;20031;-86
2023/09/19 08:36:56;;;;;;;6.57;0.43;;;16.70;99.90;;;;;;4939772;28;20038;-84
2023/09/19 08:39:23;;;;;;;6.50;0.60;;;16.60;99.90;;;;;;4941057;28;20067;-83
2023/09/19 08:41:49;;;;;;;7.82;0.65;;;16.70;99.90;;;;;;4960418;28;20035;-83
2023/09/19 08:44:15;;;;;;;6.18;0.60;;;16.60;99.90;;;;;;4944142;28;20039;-84
2023/09/19 08:46:42;;;;;;;5.72;0.60;;;16.80;99.90;;;;;;4942272;29;20045;-85
2023/09/19 08:49:25;;;;;;;8.38;0.70;;;16.80;99.90;;;;;;4958548;28;20058;-85
2023/09/19 08:52:10;;;;;;;9.18;0.47;;;16.90;99.90;;;;;;4942402;28;20484;-85
2023/09/19 08:54:40;;;;;;;4.85;0.50;;;16.90;99.90;;;;;;4944139;29;20027;-85
2023/09/19 08:57:10;;;;;;;;;;;17.10;99.90;;;;;;4958018;28;20077;-83
2023/09/19 08:59:40;;;;;;;4.15;0.57;;;17.40;99.90;;;;;;4955920;28;19918;-84
2023/09/19 09:02:11;;;;;;;3.95;0.43;;;17.30;99.90;;;;;;4950108;28;20043;-86
2023/09/19 09:04:40;;;;;;;6.15;0.50;;;17.30;99.90;;;;;;4946418;28;20063;-82
2023/09/19 09:07:12;;;;;;;7.88;0.50;;;17.40;99.90;;;;;;4941850;28;20031;-82
2023/09/19 09:09:42;;;;;;;6.05;0.50;;;17.50;99.90;;;;;;4958745;28;20564;-85
2023/09/19 09:12:12;;;;;;;6.10;0.52;;;17.50;99.90;;;;;;4949859;28;20051;-80
2023/09/19 09:14:38;;;;;;;7.68;0.60;;;17.50;99.90;;;;;;4960497;28;20028;-84
2023/09/19 09:17:04;;;;;;;6.50;0.70;;;17.70;99.90;;;;;;4951330;28;20369;-83
2023/09/19 09:19:31;;;;;;;5.47;0.50;;;17.80;99.90;;;;;;4944563;28;20041;-82
2023/09/19 09:22:09;;;;;;;8.93;0.93;;;18.00;99.90;;;;;;4956207;28;20035;-79
2023/09/19 09:24:37;;;;;;;5.35;0.50;;;18.20;99.90;;;;;;4957477;28;20122;-84
2023/09/19 09:27:10;;;;;;;4.15;0.40;;;18.20;99.90;;;;;;4934796;28;20458;-80
2023/09/19 09:29:49;;;;;;;9.02;0.90;;;17.80;99.90;;;;;;4939514;29;20101;-85
2023/09/19 09:32:35;;;;;;;4.97;0.50;;;18.10;99.90;;;;;;4915933;28;20185;-84
2023/09/19 09:35:09;;;;;;;8.52;0.70;;;18.10;99.90;;;;;;4941922;28;20034;-82
2023/09/19 09:37:38;;;;;;;3.80;0.50;;;18.40;99.90;;;;;;4945027;29;20031;-83
2023/09/19 09:42:46;;;;;;;4.38;0.47;;;18.40;99.90;;;;;;4957314;28;20032;-85
2023/09/19 09:45:19;;;;;;;5.88;0.45;;;18.60;99.90;;;;;;4951213;28;20390;-81
2023/09/19 09:47:54;;;;;;;6.93;0.50;;;18.70;99.90;;;;;;4953227;28;20062;-80
2023/09/19 09:50:44;;;;;;;6.50;0.50;;;18.50;99.90;;;;;;4941639;28;20066;-82
2023/09/19 09:53:31;;;;;;;4.35;0.50;;;18.80;99.90;;;;;;4941990;28;20054;-81
2023/09/19 09:56:16;;;;;;;5.72;0.88;;;19.00;99.90;;;;;;4940976;29;20071;-82
2023/09/19 09:58:56;;;;;;;11.57;0.70;;;18.90;99.90;;;;;;4938476;28;20039;-81
2023/09/19 10:01:26;;;;;;;;;;;18.40;99.90;;;;;;4941506;28;20027;-81
2023/09/19 10:03:57;;;;;;;6.60;0.40;;;18.40;99.90;;;;;;4947328;28;20080;-81
2023/09/19 10:11:39;;;;;;;7.28;0.40;;;18.30;99.90;;;;;;4957512;28;20092;-81
2023/09/19 10:14:06;;;;;;;;;;;18.70;99.90;;;;;;4941226;28;20054;-84
2023/09/19 10:16:34;;;;;;;6.13;0.60;;;19.10;99.90;;;;;;4954435;28;19918;-83
2023/09/19 10:19:02;;;;;;;3.38;0.50;;;19.00;99.90;;;;;;4949004;28;20043;-86
2023/09/19 10:21:30;;;;;;;4.85;0.52;;;19.10;99.90;;;;;;4957727;28;20093;-82
2023/09/19 10:23:59;;;;;;;8.70;0.80;;;19.10;99.90;;;;;;4942069;28;20047;-80
2023/09/19 10:26:30;;;;;;;4.80;0.63;;;19.00;99.90;;;;;;4942434;28;20037;-82
2023/09/19 10:29:00;;;;;;;4.78;0.60;;;19.30;99.90;;;;;;4957698;28;20046;-82
2023/09/19 10:31:28;;;;;;;4.93;0.40;;;19.20;99.90;;;;;;4941140;28;20468;-83
2023/09/19 10:33:57;;;;;;;6.50;0.43;;;19.40;99.90;;;;;;4947771;28;20028;-83
2023/09/19 10:36:30;;;;;;;4.45;0.40;;;19.60;99.90;;;;;;4941957;28;20093;-85
2023/09/19 10:39:02;;;;;;;5.18;0.55;;;19.40;99.90;;;;;;4958985;28;20411;-83
2023/09/19 10:41:29;;;;;;;7.50;0.73;;;19.10;99.90;;;;;;4942928;28;20106;-83
2023/09/19 10:43:59;;;;;;;4.80;0.43;;;19.40;99.90;;;;;;4939933;29;20027;-82
2023/09/19 10:46:25;;;;;;;;;;;19.60;99.90;;;;;;4936495;28;20118;-81
2023/09/19 10:48:54;;;;;;;7.45;0.60;;;19.60;99.90;;;;;;4954626;28;20049;-86
2023/09/19 10:51:28;;;;;;;6.83;0.60;;;19.60;99.90;;;;;;4957264;28;20092;-82
2023/09/19 10:54:04;;;;;;;5.50;0.40;;;19.40;99.90;;;;;;4952711;28;20287;-84
2023/09/19 10:56:36;;;;;;;6.60;0.50;;;19.70;99.90;;;;;;4942560;29;20058;-81
2023/09/19 10:59:15;;;;;;;4.55;0.50;;;19.90;99.90;;;;;;4940230;28;20051;-81
2023/09/19 11:02:15;;;;;;;4.40;0.50;;;19.90;99.90;;;;;;4957268;28;20024;-82
2023/09/19 11:04:42;;;;;;;6.53;0.40;;;20.00;99.90;;;;;;4954925;28;20499;-83
2023/09/19 11:07:12;;;;;;;5.65;0.63;;;19.90;99.90;;;;;;4940556;29;20024;-81
2023/09/19 11:10:01;;;;;;;6.85;0.52;;;20.00;99.90;;;;;;4940098;29;20091;-83
2023/09/19 11:12:43;;;;;;;4.60;0.40;;;19.90;99.90;;;;;;4933108;28;20455;-84
2023/09/19 11:15:10;;;;;;;6.32;0.50;;;19.90;99.90;;;;;;4940179;28;20487;-85
2023/09/19 11:17:46;;;;;;;3.33;0.50;;;19.70;99.90;;;;;;4938322;28;20044;-82
2023/09/19 11:23:07;;;;;;;1.83;0.50;;;19.70;99.90;;;;;;4959434;28;20035;-81
2023/09/19 11:25:34;;;;;;;5.57;0.40;;;20.20;99.90;;;;;;4941927;29;20617;-81
2023/09/19 11:28:07;;;;;;;4.35;0.50;;;20.10;99.90;;;;;;4957952;28;20043;-81
2023/09/19 11:30:34;;;;;;;7.40;0.50;;;19.60;99.90;;;;;;4925777;29;20035;-81
2023/09/19 11:33:28;;;;;;;4.68;0.43;;;20.00;99.90;;;;;;4926201;28;20124;-82
2023/09/19 11:36:08;;;;;;;9.02;0.50;;;20.10;99.90;;;;;;4942856;29;20028;-83
2023/09/19 11:38:46;;;;;;;4.60;0.35;;;20.20;99.90;;;;;;4940783;29;20040;-83
2023/09/19 11:41:21;;;;;;;4.70;0.43;;;20.20;99.90;;;;;;4957752;28;20032;-81
2023/09/19 11:44:06;;;;;;;5.43;0.55;;;20.40;99.90;;;;;;4958528;28;20139;-83
2023/09/19 11:46:54;;;;;;;5.70;0.40;;;20.50;99.90;;;;;;4956290;28;20241;-82
2023/09/19 11:49:29;;;;;;;4.45;0.40;;;20.60;99.90;;;;;;4960018;28;20074;-82
2023/09/19 11:51:56;;;;;;;4.45;0.40;;;20.50;99.90;;;;;;4956931;28;20035;-83
2023/09/19 11:54:22;;;;;;;5.82;0.40;;;20.40;99.90;;;;;;4943858;28;20035;-82
2023/09/19 11:56:54;;;;;;;3.08;0.30;;;20.40;99.90;;;;;;4944520;28;20035;-81
2023/09/19 11:59:30;;;;;;;5.22;0.50;;;20.70;99.90;;;;;;4936856;29;20035;-84
2023/09/19 12:02:05;;;;;;;3.33;0.40;;;20.70;99.90;;;;;;4958236;28;20067;-83
2023/09/19 12:04:38;;;;;;;2.17;0.20;;;20.90;99.90;;;;;;4952061;28;20506;-82
2023/09/19 12:07:15;;;;;;;4.43;0.40;;;20.50;99.90;;;;;;4959941;28;20028;-82
2023/09/19 12:09:49;;;;;;;4.68;0.40;;;20.40;99.90;;;;;;4941244;29;20028;-85
2023/09/19 12:12:29;;;;;;;2.60;0.38;;;20.40;99.90;;;;;;4943382;28;20061;-81
2023/09/19 12:15:03;;;;;;;2.67;0.30;;;20.50;99.90;;;;;;4958939;28;20062;-83
2023/09/19 12:17:41;;;;;;;5.00;0.40;;;20.40;99.90;;;;;;4926007;29;20292;-80
2023/09/19 12:20:13;;;;;;;2.78;0.30;;;20.20;99.90;;;;;;4953894;28;20046;-80
2023/09/19 12:22:40;;;;;;;3.15;0.30;;;20.20;99.90;;;;;;4931855;28;20027;-85
2023/09/19 12:25:07;;;;;;;3.33;0.30;;;20.00;99.90;;;;;;4958109;28;20098;-85
2023/09/19 12:27:43;;;;;;;4.60;0.30;;;20.30;99.90;;;;;;4952924;28;20480;-82
2023/09/19 12:30:17;;;;;;;3.30;0.30;;;20.10;99.90;;;;;;4946246;29;20058;-82
2023/09/19 12:32:44;;;;;;;3.17;0.30;;;20.20;99.90;;;;;;4903936;28;20040;-86
2023/09/19 12:35:11;;;;;;;3.15;0.30;;;20.40;99.90;;;;;;4940316;29;20387;-85
2023/09/19 12:37:53;;;;;;;4.28;0.30;;;20.50;99.90;;;;;;4944849;29;20031;-85
2023/09/19 12:40:27;;;;;;;6.25;0.30;;;20.60;99.90;;;;;;4943240;28;20078;-84
2023/09/19 12:43:04;;;;;;;3.80;0.40;;;20.60;99.90;;;;;;4945058;28;20468;-88
2023/09/19 12:45:31;;;;;;;2.55;0.30;;;20.60;99.90;;;;;;4940791;28;20031;-82
2023/09/19 12:48:22;;;;;;;1.75;0.20;;;20.50;99.90;;;;;;4952604;28;20270;-82
2023/09/19 12:51:12;;;;;;;3.28;0.28;;;20.50;99.90;;;;;;4957646;28;20104;-83
2023/09/19 12:53:43;;;;;;;2.30;0.20;;;20.40;99.90;;;;;;4946541;28;20027;-81
2023/09/19 12:56:14;;;;;;;2.22;0.50;;;20.60;99.90;;;;;;4944701;29;20042;-80
2023/09/19 12:58:56;;;;;;;3.10;0.30;;;20.20;99.90;;;;;;4952680;28;20031;-83
2023/09/19 13:01:26;;;;;;;1.98;0.20;;;19.90;99.90;;;;;;4928843;28;20020;-84
2023/09/19 13:04:18;;;;;;;1.52;0.20;;;19.90;99.90;;;;;;4946186;29;20038;-85
2023/09/19 13:06:52;;;;;;;1.90;0.20;;;19.80;99.90;;;;;;4960475;28;20027;-87
2023/09/19 13:09:24;;;;;;;1.88;0.20;;;19.80;99.90;;;;;;4957132;28;20548;-82
2023/09/19 13:11:50;;;;;;;3.03;0.20;;;19.80;99.90;;;;;;4949122;28;20035;-81
2023/09/19 13:14:28;;;;;;;3.58;0.30;;;19.70;99.90;;;;;;4955064;28;20062;-87